Overview Statistics Trail Chart Weather Telemetry Raw packets
 

This is the latest recevied weather packets stored in our database for station/object DW2488. If no packets are shown the sender has not sent any weather packets the latest 10 day(s).

<< 1 2 3 4 >>
Time Temp. Humidity Pressure Rain* Wind** Luminosity Snow
1788582010 30.56° C 29% 1007.1 hPa 0 mm - 211 W/m² -
1788581112 31.67° C 26% 1007 hPa 0 mm - 225 W/m² -
1788580209 33.33° C 29% 1006.5 hPa 0 mm - 800 W/m² -
1788579311 32.78° C 31% 1006.5 hPa 0 mm - 671 W/m² -
1788578411 32.22° C 33% 1006.7 hPa 0 mm - 700 W/m² -
1788577517 31.11° C 33% 1007.1 hPa 0 mm - 728 W/m² -
1788576609 30.56° C 35% 1007.6 hPa 0 mm - 749 W/m² -
1788575702 30° C 36% 1008.2 hPa 0 mm - 772 W/m² -
1788574803 29.44° C 38% 1008.8 hPa 0 mm - 791 W/m² -
1788573898 28.89° C 39% 1009.2 hPa 0 mm - 780 W/m² -
1788572998 28.33° C 41% 1009.4 hPa 0 mm - 770 W/m² -
1788572092 27.78° C 44% 1010.3 hPa 0 mm - 756 W/m² -
1788571184 27.78° C 42% 1010.7 hPa 0 mm - 747 W/m² -
1788570287 27.78° C 45% 1010.9 hPa 0 mm - 733 W/m² -
1788569384 26.11° C 49% 1011.6 hPa 0 mm - 714 W/m² -
1788568465 25° C 51% 1012.3 hPa 0 mm - 694 W/m² -
1788567563 23.33° C 54% 1012.6 hPa 0 mm - 671 W/m² -
1788566654 21.67° C 60% 1013.1 hPa 0 mm - 652 W/m² -
1788565752 20° C 62% 1013.5 hPa 0 mm - 628 W/m² -
1788564859 18.89° C 64% 1014 hPa 0 mm - 617 W/m² -
1788563943 18.33° C 64% 1014.2 hPa 0 mm - 591 W/m² -
1788563042 17.22° C 66% 1014.6 hPa 0 mm - 362 W/m² -
1788562138 15.56° C 70% 1014.8 hPa 0 mm - 510 W/m² -
1788561219 13.89° C 74% 1014.9 hPa 0 mm - 480 W/m² -
1788560315 11.67° C 78% 1015.1 hPa 0 mm - 376 W/m² -

* Rain latest hour (hover to see other rain measurements)
** Current wind speed in m/s (hover to see current wind gust speed)